createdAt,value
2022-08-23T00:01:44.863Z,13.40
2022-08-23T00:05:43.822Z,13.30
2022-08-23T00:09:41.125Z,13.20
2022-08-23T00:13:47.444Z,13.20
2022-08-23T00:17:45.429Z,13.10
2022-08-23T00:21:44.157Z,13.00
2022-08-23T00:25:42.613Z,12.90
2022-08-23T00:29:47.453Z,12.80
2022-08-23T00:33:44.766Z,12.70
2022-08-23T00:37:41.977Z,12.70
2022-08-23T00:41:40.132Z,12.70
2022-08-23T00:46:09.619Z,12.60
2022-08-23T00:50:23.838Z,12.50
2022-08-23T00:54:25.267Z,12.50
2022-08-23T00:58:23.201Z,12.40
2022-08-23T01:02:20.400Z,12.30
2022-08-23T01:06:38.741Z,12.30
2022-08-23T01:10:57.098Z,12.20
2022-08-23T01:15:17.579Z,12.10
2022-08-23T01:19:27.461Z,12.10
2022-08-23T01:23:56.508Z,12.00
2022-08-23T01:27:53.750Z,12.00
2022-08-23T01:31:51.037Z,11.90
2022-08-23T01:35:55.341Z,11.90
2022-08-23T01:39:53.400Z,11.80
2022-08-23T01:43:50.527Z,11.80
2022-08-23T01:47:49.242Z,11.80
2022-08-23T01:51:47.278Z,11.80
2022-08-23T01:55:44.465Z,11.70
2022-08-23T01:59:43.918Z,11.70
2022-08-23T02:03:41.382Z,11.70
2022-08-23T02:07:38.789Z,11.60
2022-08-23T02:11:42.625Z,11.60
2022-08-23T02:15:47.054Z,11.50
2022-08-23T02:19:45.317Z,11.40
2022-08-23T02:23:42.748Z,11.40
2022-08-23T02:27:42.967Z,11.30
2022-08-23T02:31:44.497Z,11.30
2022-08-23T02:35:41.937Z,11.20
2022-08-23T02:39:40.143Z,11.20
2022-08-23T02:43:40.964Z,11.20
2022-08-23T02:47:39.252Z,11.10
2022-08-23T02:51:45.737Z,11.20
2022-08-23T02:55:47.796Z,11.10
2022-08-23T02:59:44.908Z,11.10
2022-08-23T03:03:43.075Z,11.00
2022-08-23T03:07:40.889Z,11.00
2022-08-23T03:11:45.055Z,10.90
2022-08-23T03:15:43.458Z,10.90
2022-08-23T03:19:40.693Z,10.80
2022-08-23T03:23:40.575Z,10.80
2022-08-23T03:27:38.452Z,10.70
2022-08-23T03:31:42.869Z,10.70
2022-08-23T03:35:42.950Z,10.70
2022-08-23T03:39:42.102Z,10.70
2022-08-23T03:43:39.992Z,10.60
2022-08-23T03:47:38.139Z,10.60
2022-08-23T03:51:35.823Z,10.70
2022-08-23T03:55:33.655Z,10.60
2022-08-23T03:59:42.797Z,10.60
2022-08-23T04:03:41.545Z,10.50
2022-08-23T04:07:40.263Z,10.40
2022-08-23T04:11:38.330Z,10.40
2022-08-23T04:15:37.364Z,10.40
2022-08-23T04:19:36.235Z,10.40
2022-08-23T04:23:36.803Z,10.30
2022-08-23T04:27:33.895Z,10.30
2022-08-23T04:31:34.553Z,10.30
2022-08-23T04:35:35.325Z,10.30
2022-08-23T04:39:53.929Z,10.30
2022-08-23T04:43:51.813Z,10.20
2022-08-23T04:47:48.910Z,10.20
2022-08-23T04:51:52.791Z,10.30
2022-08-23T04:55:52.672Z,10.30
2022-08-23T04:59:50.183Z,10.30
2022-08-23T05:03:47.406Z,10.30
2022-08-23T05:07:44.630Z,10.40
2022-08-23T05:11:41.739Z,10.40
2022-08-23T05:15:39.154Z,10.50
2022-08-23T05:19:37.505Z,10.50
2022-08-23T05:23:41.702Z,10.50
2022-08-23T05:27:45.765Z,10.60
2022-08-23T05:31:43.064Z,10.60
2022-08-23T05:35:45.554Z,10.60
2022-08-23T05:39:43.231Z,10.80
2022-08-23T05:43:41.033Z,10.80
2022-08-23T05:47:38.157Z,11.00
2022-08-23T05:51:51.914Z,11.10
2022-08-23T05:55:50.927Z,11.30
2022-08-23T05:59:50.022Z,11.40
2022-08-23T06:03:47.832Z,11.60
2022-08-23T06:07:45.520Z,11.70
2022-08-23T06:11:48.249Z,11.90
2022-08-23T06:15:46.265Z,12.00
2022-08-23T06:19:43.401Z,12.20
2022-08-23T06:23:56.685Z,12.40
2022-08-23T06:27:53.795Z,12.70
2022-08-23T06:31:52.979Z,12.90
2022-08-23T06:36:07.199Z,13.00
2022-08-23T06:40:27.777Z,13.20
2022-08-23T06:44:49.236Z,13.40
2022-08-23T06:49:00.799Z,13.70
2022-08-23T06:52:58.072Z,13.80
2022-08-23T06:57:13.607Z,14.10
2022-08-23T07:01:45.127Z,14.40
2022-08-23T07:05:49.876Z,14.70
2022-08-23T07:09:57.053Z,14.90
2022-08-23T07:13:55.359Z,15.20
2022-08-23T07:17:52.487Z,15.40
2022-08-23T07:21:50.746Z,15.60
2022-08-23T07:25:47.810Z,15.90
2022-08-23T07:29:48.509Z,16.10
2022-08-23T07:33:46.707Z,16.50
2022-08-23T07:37:47.952Z,16.60
2022-08-23T07:41:46.992Z,16.80
2022-08-23T07:45:49.210Z,17.00
2022-08-23T07:49:47.133Z,17.10
2022-08-23T07:53:46.305Z,17.30
2022-08-23T07:57:45.515Z,17.50
2022-08-23T08:02:06.774Z,17.80
2022-08-23T08:06:30.754Z,18.10
2022-08-23T08:10:32.424Z,18.60
2022-08-23T08:14:29.624Z,19.50
2022-08-23T08:18:29.182Z,20.30
2022-08-23T08:22:48.553Z,21.00
2022-08-23T08:27:02.779Z,21.30
2022-08-23T08:31:00.030Z,21.70
2022-08-23T08:34:57.118Z,22.10
2022-08-23T08:38:58.733Z,22.40
2022-08-23T08:43:28.725Z,22.80
2022-08-23T08:47:57.062Z,23.20
2022-08-23T08:52:10.447Z,23.50
2022-08-23T08:56:25.195Z,23.80
2022-08-23T09:00:47.169Z,24.10
2022-08-23T09:04:46.555Z,24.50
2022-08-23T09:08:55.445Z,25.10
2022-08-23T09:13:32.564Z,25.20
2022-08-23T09:18:07.507Z,25.60
2022-08-23T09:22:24.194Z,25.60
2022-08-23T09:26:30.395Z,26.10
2022-08-23T09:30:49.503Z,26.80
2022-08-23T09:34:47.049Z,26.90
2022-08-23T09:39:07.773Z,27.70
2022-08-23T09:43:20.578Z,28.00
2022-08-23T09:47:17.707Z,28.20
2022-08-23T09:51:36.056Z,28.70
2022-08-23T09:55:42.963Z,29.00
2022-08-23T09:59:47.658Z,29.40
2022-08-23T10:04:13.948Z,29.80
2022-08-23T10:08:28.750Z,30.30
2022-08-23T10:12:29.120Z,30.30
2022-08-23T10:16:48.573Z,30.30
2022-08-23T10:21:03.145Z,30.30
2022-08-23T10:25:30.931Z,30.00
2022-08-23T10:29:42.433Z,30.30
2022-08-23T10:34:30.454Z,30.90
2022-08-23T10:38:46.987Z,30.30
2022-08-23T10:43:02.294Z,31.00
2022-08-23T10:47:30.755Z,31.40
2022-08-23T10:51:33.141Z,30.90
2022-08-23T10:55:44.478Z,31.00
2022-08-23T10:59:45.672Z,31.10
2022-08-23T11:04:04.811Z,31.30
2022-08-23T11:08:47.455Z,31.10
2022-08-23T11:13:19.504Z,31.00
2022-08-23T11:17:29.904Z,31.50
2022-08-23T11:21:31.715Z,32.10
2022-08-23T11:25:33.483Z,32.20
2022-08-23T11:29:32.854Z,33.20
2022-08-23T11:34:19.720Z,33.90
2022-08-23T11:38:48.716Z,34.50
2022-08-23T11:42:53.184Z,35.10
2022-08-23T11:46:50.747Z,35.00
2022-08-23T11:50:59.893Z,35.00
2022-08-23T11:55:42.402Z,36.00
2022-08-23T12:00:17.576Z,36.00
2022-08-23T12:04:45.843Z,36.60
2022-08-23T12:09:02.180Z,36.60
2022-08-23T12:13:18.137Z,36.70
2022-08-23T12:17:28.705Z,37.20
2022-08-23T12:21:52.219Z,36.50
2022-08-23T12:26:09.559Z,35.90
2022-08-23T12:30:10.951Z,35.80
2022-08-23T12:34:08.025Z,35.90
2022-08-23T12:38:21.519Z,36.00
2022-08-23T12:42:37.551Z,35.20
2022-08-23T12:46:44.488Z,34.90
2022-08-23T12:50:45.359Z,35.90
2022-08-23T12:54:50.301Z,36.50
2022-08-23T12:58:54.600Z,36.10
2022-08-23T13:03:05.962Z,35.20
2022-08-23T13:07:12.249Z,35.60
2022-08-23T13:11:14.927Z,36.30
2022-08-23T13:15:12.163Z,35.90
2022-08-23T13:19:30.822Z,35.70
2022-08-23T13:23:30.324Z,35.90
2022-08-23T13:27:36.542Z,36.10
2022-08-23T13:32:05.848Z,34.60
2022-08-23T13:36:15.976Z,34.70
2022-08-23T13:40:25.474Z,35.60
2022-08-23T13:44:23.310Z,35.70
2022-08-23T13:48:32.108Z,35.20
2022-08-23T13:56:56.544Z,35.50
2022-08-23T14:00:55.581Z,36.00
2022-08-23T14:04:53.258Z,34.70
2022-08-23T14:08:52.835Z,33.10
2022-08-23T14:12:54.730Z,33.30
2022-08-23T14:16:54.505Z,34.00
2022-08-23T14:20:51.692Z,35.10
2022-08-23T14:24:48.915Z,34.60
2022-08-23T14:28:47.005Z,32.50
2022-08-23T14:32:48.667Z,31.60
2022-08-23T14:41:17.069Z,32.60
2022-08-23T14:45:18.082Z,33.00
2022-08-23T14:49:15.649Z,33.10
2022-08-23T14:53:17.900Z,33.80
2022-08-23T14:57:15.017Z,34.30
2022-08-23T15:01:13.082Z,33.90
2022-08-23T15:05:12.084Z,34.10
2022-08-23T15:09:09.158Z,33.70
2022-08-23T15:13:32.401Z,34.00
2022-08-23T15:17:30.336Z,33.80
2022-08-23T15:21:28.643Z,34.00
2022-08-23T15:25:29.837Z,34.00
2022-08-23T15:29:27.946Z,34.10
2022-08-23T15:33:27.090Z,34.40
2022-08-23T15:37:27.882Z,34.80
2022-08-23T15:41:24.953Z,35.20
2022-08-23T15:45:22.614Z,35.60
2022-08-23T15:49:19.906Z,35.80
2022-08-23T15:53:20.783Z,35.40
2022-08-23T15:57:24.964Z,35.70
2022-08-23T16:01:25.789Z,36.10
2022-08-23T16:05:23.150Z,35.00
2022-08-23T16:09:25.722Z,35.40
2022-08-23T16:13:27.023Z,35.80
2022-08-23T16:17:25.672Z,35.50
2022-08-23T16:21:26.418Z,34.50
2022-08-23T16:25:24.792Z,34.40
2022-08-23T16:29:22.843Z,34.70
2022-08-23T16:33:19.856Z,34.70
2022-08-23T16:37:16.941Z,34.50
2022-08-23T16:41:14.450Z,34.30
2022-08-23T16:45:12.217Z,34.20
2022-08-23T16:49:16.412Z,33.90
2022-08-23T16:53:13.564Z,33.40
2022-08-23T16:57:10.606Z,32.80
2022-08-23T17:01:14.070Z,32.20
2022-08-23T17:05:15.567Z,31.60
2022-08-23T17:09:13.662Z,31.40
2022-08-23T17:13:14.021Z,31.00
2022-08-23T17:17:12.907Z,30.60
2022-08-23T17:21:10.128Z,30.20
2022-08-23T17:25:09.820Z,29.90
2022-08-23T17:29:07.493Z,29.50
2022-08-23T17:33:05.360Z,28.50
2022-08-23T17:37:02.685Z,27.60
2022-08-23T17:41:00.275Z,27.10
2022-08-23T17:44:57.835Z,26.70
2022-08-23T17:48:54.939Z,26.10
2022-08-23T17:52:52.030Z,25.60
2022-08-23T17:56:50.659Z,25.10
2022-08-23T18:00:48.027Z,24.80
2022-08-23T18:04:45.254Z,24.70
2022-08-23T18:08:42.326Z,24.50
2022-08-23T18:12:40.865Z,24.30
2022-08-23T18:16:38.705Z,23.90
2022-08-23T18:20:37.135Z,23.60
2022-08-23T18:24:34.344Z,23.30
2022-08-23T18:28:31.407Z,23.10
2022-08-23T18:32:28.857Z,22.70
2022-08-23T18:36:26.564Z,22.50
2022-08-23T18:40:25.748Z,22.30
2022-08-23T18:44:23.219Z,22.00
2022-08-23T18:48:22.269Z,21.80
2022-08-23T18:52:19.392Z,21.70
2022-08-23T18:56:16.623Z,21.40
2022-08-23T19:00:14.004Z,21.30
2022-08-23T19:04:13.840Z,21.10
2022-08-23T19:08:13.438Z,20.90
2022-08-23T19:12:10.632Z,20.80
2022-08-23T19:16:13.387Z,20.70
2022-08-23T19:20:11.657Z,20.60
2022-08-23T19:24:08.724Z,20.50
2022-08-23T19:28:06.247Z,20.40
2022-08-23T19:32:04.367Z,20.40
2022-08-23T19:36:02.846Z,20.30
2022-08-23T19:40:00.176Z,20.30
2022-08-23T19:43:58.464Z,20.20
2022-08-23T19:47:59.650Z,20.10
2022-08-23T19:51:57.356Z,20.00
2022-08-23T19:55:54.465Z,19.90
2022-08-23T19:59:51.602Z,19.80
2022-08-23T20:03:48.723Z,19.70
2022-08-23T20:07:46.648Z,19.40
2022-08-23T20:11:43.989Z,19.40
2022-08-23T20:15:41.071Z,19.20
2022-08-23T20:19:38.626Z,19.10
2022-08-23T20:23:54.689Z,18.90
2022-08-23T20:27:52.518Z,18.80
2022-08-23T20:31:52.061Z,18.70
2022-08-23T20:35:49.170Z,18.60
2022-08-23T20:39:46.497Z,18.50
2022-08-23T20:43:48.776Z,18.40
2022-08-23T20:47:45.827Z,18.30
2022-08-23T20:51:42.987Z,18.30
2022-08-23T20:55:40.226Z,18.20
2022-08-23T20:59:40.956Z,18.10
2022-08-23T21:03:40.988Z,18.00
2022-08-23T21:07:38.020Z,18.00
2022-08-23T21:11:35.137Z,17.90
2022-08-23T21:15:32.262Z,17.80
2022-08-23T21:19:30.200Z,17.70
2022-08-23T21:23:27.378Z,17.70
2022-08-23T21:27:24.398Z,17.70
2022-08-23T21:31:24.760Z,17.60
2022-08-23T21:35:24.059Z,17.50
2022-08-23T21:39:21.230Z,17.40
2022-08-23T21:43:18.225Z,17.40
2022-08-23T21:47:15.947Z,17.30
2022-08-23T21:51:13.099Z,17.20
2022-08-23T21:55:10.655Z,17.10
2022-08-23T21:59:13.484Z,17.10
2022-08-23T22:03:12.818Z,17.10
2022-08-23T22:07:09.950Z,17.00
2022-08-23T22:11:07.509Z,16.90
2022-08-23T22:15:06.490Z,16.80
2022-08-23T22:19:05.208Z,16.70
2022-08-23T22:23:02.663Z,16.60
2022-08-23T22:26:59.899Z,16.50
2022-08-23T22:31:00.803Z,16.50
2022-08-23T22:34:58.959Z,16.50
2022-08-23T22:38:56.794Z,16.40
2022-08-23T22:42:53.807Z,16.40
2022-08-23T22:46:51.438Z,16.40
2022-08-23T22:50:49.727Z,16.30
2022-08-23T22:54:47.193Z,16.20
2022-08-23T22:58:45.127Z,16.20
2022-08-23T23:02:44.953Z,16.10
2022-08-23T23:06:42.661Z,16.00
2022-08-23T23:10:39.652Z,15.90
2022-08-23T23:14:36.691Z,15.80
2022-08-23T23:18:34.911Z,15.70
2022-08-23T23:22:31.899Z,15.70
2022-08-23T23:26:29.641Z,15.60
2022-08-23T23:30:26.720Z,15.50
2022-08-23T23:34:26.016Z,15.50
2022-08-23T23:38:23.031Z,15.40
2022-08-23T23:42:20.023Z,15.30
2022-08-23T23:46:20.182Z,15.30
2022-08-23T23:50:17.649Z,15.30
2022-08-23T23:54:14.766Z,15.20
2022-08-23T23:58:12.085Z,15.20
